Time;durP1;ratioP1;P1;durP2;ratioP2;P2;SDS_P1;SDS_P2;PMS_P1;PMS_P2;Temp;Humidity;BMP_temperature;BMP_pressure;BME280_temperature;BME280_humidity;BME280_pressure;Samples;Min_cycle;Max_cycle;Signal;HPM_P1;HPM_P2
2023/07/23 00:01:54;;;;;;;39.93;7.33;;;27.10;50.50;;;;;;5070351;28;20199;-68
2023/07/23 00:04:21;;;;;;;30.33;6.77;;;27.10;50.60;;;;;;5061385;28;20200;-68
2023/07/23 00:06:48;;;;;;;31.83;6.57;;;27.10;50.60;;;;;;5050584;28;20220;-68
2023/07/23 00:09:15;;;;;;;25.20;5.73;;;27.10;50.60;;;;;;5052796;28;20559;-65
2023/07/23 00:11:42;;;;;;;36.70;6.90;;;27.10;51.20;;;;;;5065231;28;20299;-67
2023/07/23 00:14:10;;;;;;;31.53;6.50;;;27.10;50.60;;;;;;5049507;28;20214;-68
2023/07/23 00:16:37;;;;;;;27.40;6.40;;;27.10;50.60;;;;;;5050064;28;20208;-73
2023/07/23 00:19:04;;;;;;;32.87;6.53;;;27.10;50.60;;;;;;5050628;28;20242;-67
2023/07/23 00:21:31;;;;;;;26.50;6.07;;;27.00;50.60;;;;;;5050399;28;20200;-66
2023/07/23 00:23:58;;;;;;;25.17;6.17;;;27.10;50.60;;;;;;5050449;28;20193;-67
2023/07/23 00:26:27;;;;;;;30.17;6.63;;;27.00;50.60;;;;;;5063786;28;20215;-65
2023/07/23 00:28:54;;;;;;;24.30;5.87;;;27.00;50.60;;;;;;5050676;28;20228;-66
2023/07/23 00:31:22;;;;;;;32.53;6.37;;;27.00;50.60;;;;;;5049572;28;20208;-65
2023/07/23 00:33:49;;;;;;;23.40;5.57;;;27.00;50.70;;;;;;5049825;28;20648;-65
2023/07/23 00:36:16;;;;;;;36.37;6.87;;;27.00;50.60;;;;;;5050439;28;20291;-71
2023/07/23 00:38:42;;;;;;;28.50;6.40;;;27.00;50.70;;;;;;5045198;28;20632;-68
2023/07/23 00:41:09;;;;;;;37.57;6.67;;;27.00;50.70;;;;;;5049154;28;20971;-69
2023/07/23 00:43:36;;;;;;;39.00;7.13;;;27.00;50.60;;;;;;5046892;28;20208;-66
2023/07/23 00:46:03;;;;;;;29.20;6.17;;;27.00;50.70;;;;;;5049314;28;20751;-66
2023/07/23 00:48:31;;;;;;;26.77;6.00;;;27.00;50.70;;;;;;5049096;28;20680;-65
2023/07/23 00:50:58;;;;;;;32.17;6.27;;;27.00;51.30;;;;;;5049356;28;20215;-65
2023/07/23 00:53:26;;;;;;;34.23;6.57;;;27.00;50.70;;;;;;5049214;28;20302;-67
2023/07/23 00:55:53;;;;;;;27.37;5.83;;;27.00;50.70;;;;;;5043141;28;20196;-67
2023/07/23 00:58:21;;;;;;;22.80;5.33;;;26.90;51.20;;;;;;5067159;28;20233;-66
2023/07/23 01:00:49;;;;;;;38.17;7.10;;;26.90;50.60;;;;;;5066179;28;20851;-66
2023/07/23 01:03:16;;;;;;;34.90;6.57;;;27.00;50.70;;;;;;5047754;28;20203;-68
2023/07/23 01:05:46;;;;;;;24.77;5.60;;;27.00;50.70;;;;;;5069436;28;20218;-67
2023/07/23 01:08:14;;;;;;;29.83;6.03;;;27.00;50.70;;;;;;5048244;28;20204;-66
2023/07/23 01:10:41;;;;;;;36.07;7.07;;;27.00;50.70;;;;;;5046778;28;20231;-65
2023/07/23 01:13:09;;;;;;;32.47;6.20;;;26.90;50.70;;;;;;5029123;28;20298;-65
2023/07/23 01:15:36;;;;;;;27.53;6.57;;;26.90;50.70;;;;;;5029456;28;20633;-66
2023/07/23 01:18:04;;;;;;;21.80;5.63;;;26.90;50.70;;;;;;5029364;28;20614;-66
2023/07/23 01:20:30;;;;;;;24.83;5.37;;;26.90;50.70;;;;;;5029382;28;20239;-65
2023/07/23 01:22:59;;;;;;;22.57;5.47;;;26.90;50.70;;;;;;5028882;28;20204;-68
2023/07/23 01:25:26;;;;;;;28.53;6.00;;;26.90;50.70;;;;;;5038021;28;20954;-65
2023/07/23 01:27:52;;;;;;;31.63;6.57;;;27.00;50.80;;;;;;5069143;28;20203;-69
2023/07/23 01:30:19;;;;;;;35.17;6.57;;;26.90;50.70;;;;;;5067947;28;20203;-68
2023/07/23 01:32:47;;;;;;;29.80;6.40;;;26.90;50.80;;;;;;5038159;28;20239;-74
2023/07/23 01:35:16;;;;;;;24.67;5.77;;;26.90;50.80;;;;;;5048986;28;20204;-71
2023/07/23 01:37:47;;;;;;;29.60;5.93;;;26.90;50.80;;;;;;5047477;28;20212;-71
2023/07/23 01:40:16;;;;;;;20.37;5.13;;;26.90;50.80;;;;;;5047409;28;20295;-72
2023/07/23 01:42:44;;;;;;;30.63;6.23;;;26.90;50.80;;;;;;5047809;28;20708;-71
2023/07/23 01:45:13;;;;;;;21.13;5.70;;;26.90;50.80;;;;;;5048431;28;20599;-73
2023/07/23 01:47:40;;;;;;;28.53;5.80;;;26.90;50.80;;;;;;5048326;28;20668;-72
2023/07/23 01:50:08;;;;;;;28.17;6.10;;;26.90;50.80;;;;;;5048569;28;20570;-68
2023/07/23 01:52:35;;;;;;;34.57;6.47;;;26.90;50.80;;;;;;5046106;28;20228;-71
2023/07/23 01:55:02;;;;;;;47.87;7.73;;;26.90;50.80;;;;;;5044799;28;20208;-72
2023/07/23 01:57:30;;;;;;;34.53;6.93;;;26.90;50.80;;;;;;5056399;28;20199;-72
2023/07/23 01:59:57;;;;;;;30.70;6.23;;;26.90;50.80;;;;;;5062615;28;20200;-74
2023/07/23 02:02:24;;;;;;;35.10;6.80;;;26.90;50.80;;;;;;5047810;28;20197;-68
2023/07/23 02:04:51;;;;;;;22.13;5.40;;;26.80;50.80;;;;;;5048269;28;20663;-70
2023/07/23 02:07:18;;;;;;;33.63;6.67;;;26.90;50.90;;;;;;5048212;28;20204;-69
2023/07/23 02:09:44;;;;;;;30.73;5.97;;;26.80;50.90;;;;;;5048212;28;20223;-66
2023/07/23 02:12:11;;;;;;;23.93;5.40;;;26.80;50.90;;;;;;5047956;28;20632;-68
2023/07/23 02:14:39;;;;;;;31.53;6.17;;;26.90;50.90;;;;;;5045867;28;20193;-65
2023/07/23 02:17:07;;;;;;;29.63;6.27;;;26.90;50.90;;;;;;5048172;28;20641;-66
2023/07/23 02:19:34;;;;;;;53.90;8.27;;;26.80;50.90;;;;;;5045853;28;20238;-65
2023/07/23 02:22:01;;;;;;;29.00;5.90;;;26.80;50.80;;;;;;5030960;28;20210;-65
2023/07/23 02:24:28;;;;;;;23.80;5.70;;;26.80;51.50;;;;;;5047787;28;20220;-65
2023/07/23 02:26:55;;;;;;;46.47;7.67;;;26.80;50.90;;;;;;5058584;28;20203;-70
2023/07/23 02:29:22;;;;;;;22.77;5.47;;;26.80;50.90;;;;;;5057392;28;20200;-65
2023/07/23 02:31:50;;;;;;;32.10;6.17;;;26.80;50.90;;;;;;5027971;28;20204;-65
2023/07/23 02:34:17;;;;;;;27.63;6.07;;;26.80;50.90;;;;;;5028200;28;20298;-65
2023/07/23 02:36:46;;;;;;;34.27;6.47;;;26.80;50.90;;;;;;5043317;28;20207;-74
2023/07/23 02:39:13;;;;;;;22.10;5.50;;;26.80;50.90;;;;;;5045443;28;20258;-70
2023/07/23 02:41:40;;;;;;;25.87;5.93;;;26.80;50.90;;;;;;5047899;28;20215;-68
2023/07/23 02:44:07;;;;;;;30.23;6.10;;;26.80;50.90;;;;;;5048016;28;20208;-66
2023/07/23 02:46:34;;;;;;;25.37;5.80;;;26.80;50.90;;;;;;5048415;28;20200;-66
2023/07/23 02:49:03;;;;;;;27.03;6.03;;;26.80;50.90;;;;;;5047857;28;20290;-68
2023/07/23 02:51:30;;;;;;;33.17;6.37;;;26.80;51.00;;;;;;5050546;28;20253;-66
2023/07/23 02:53:57;;;;;;;18.30;4.87;;;26.80;51.00;;;;;;5057264;28;20607;-65
2023/07/23 02:56:24;;;;;;;27.77;6.07;;;26.80;51.00;;;;;;5062219;28;20191;-66
2023/07/23 02:58:51;;;;;;;34.97;6.60;;;26.80;51.00;;;;;;5059986;28;20200;-65
2023/07/23 03:01:18;;;;;;;28.43;6.10;;;26.80;51.00;;;;;;5054274;28;20207;-65
2023/07/23 03:03:47;;;;;;;32.27;6.43;;;26.80;51.00;;;;;;5053955;28;20200;-65
2023/07/23 03:06:16;;;;;;;19.87;5.97;;;26.80;51.10;;;;;;5054428;28;20192;-65
2023/07/23 03:08:43;;;;;;;23.10;5.47;;;26.80;51.00;;;;;;5054092;28;20200;-66
2023/07/23 03:11:10;;;;;;;22.23;5.70;;;26.70;51.00;;;;;;5053944;28;20200;-65
2023/07/23 03:13:37;;;;;;;32.47;6.80;;;26.70;51.00;;;;;;5044742;28;20258;-66
2023/07/23 03:16:04;;;;;;;32.30;6.80;;;26.70;51.00;;;;;;5072821;28;20960;-65
2023/07/23 03:18:31;;;;;;;20.80;5.13;;;26.70;51.00;;;;;;5070044;28;20693;-66
2023/07/23 03:20:58;;;;;;;40.93;6.90;;;26.70;51.00;;;;;;5067840;28;20676;-65
2023/07/23 03:23:26;;;;;;;26.77;5.80;;;26.70;51.00;;;;;;5052582;28;20207;-71
2023/07/23 03:25:53;;;;;;;35.43;6.63;;;26.70;51.00;;;;;;5047892;28;20220;-67
2023/07/23 03:28:20;;;;;;;27.87;5.97;;;26.70;51.00;;;;;;5047014;28;20207;-68
2023/07/23 03:30:47;;;;;;;27.23;6.20;;;26.70;51.00;;;;;;5034011;28;20287;-67
2023/07/23 03:33:13;;;;;;;29.70;6.37;;;26.70;51.00;;;;;;5034512;28;20318;-65
2023/07/23 03:35:40;;;;;;;23.83;5.50;;;26.70;51.00;;;;;;5052041;28;20891;-66
2023/07/23 03:38:07;;;;;;;24.83;5.47;;;26.70;51.00;;;;;;5053859;28;20214;-67
2023/07/23 03:40:35;;;;;;;26.73;5.73;;;26.70;51.10;;;;;;5053601;28;20191;-66
2023/07/23 03:43:02;;;;;;;32.23;6.20;;;26.70;51.10;;;;;;5053766;28;20211;-69
2023/07/23 03:45:29;;;;;;;33.13;6.43;;;26.70;51.10;;;;;;5055856;28;20199;-66
2023/07/23 03:47:56;;;;;;;30.47;6.43;;;26.70;51.10;;;;;;5073571;28;20199;-65
2023/07/23 03:50:23;;;;;;;28.37;6.07;;;26.70;51.10;;;;;;5052971;28;20234;-67
2023/07/23 03:52:50;;;;;;;28.60;6.73;;;26.70;51.10;;;;;;5052016;28;20216;-72
2023/07/23 03:55:17;;;;;;;31.10;6.33;;;26.70;51.20;;;;;;5053520;28;20211;-69
2023/07/23 03:57:45;;;;;;;25.47;6.03;;;26.70;51.10;;;;;;5053728;28;20204;-66
2023/07/23 04:00:13;;;;;;;28.30;6.17;;;26.70;51.10;;;;;;5054349;28;20208;-67
2023/07/23 04:02:41;;;;;;;32.60;6.73;;;26.70;51.20;;;;;;5053112;28;20552;-72
2023/07/23 04:05:09;;;;;;;29.97;6.30;;;26.70;51.20;;;;;;5050799;28;20192;-66
2023/07/23 04:07:36;;;;;;;29.87;6.23;;;26.60;51.10;;;;;;5050295;28;20986;-67
2023/07/23 04:10:04;;;;;;;38.00;7.20;;;26.60;51.10;;;;;;5038034;28;20210;-66
2023/07/23 04:12:33;;;;;;;30.63;6.57;;;26.60;51.10;;;;;;5070362;28;20230;-73
2023/07/23 04:15:01;;;;;;;34.53;6.80;;;26.60;51.70;;;;;;5070901;28;20621;-68
2023/07/23 04:17:28;;;;;;;33.67;6.67;;;26.60;51.10;;;;;;5070570;28;20298;-65
2023/07/23 04:19:55;;;;;;;26.37;6.17;;;26.60;51.20;;;;;;5070757;28;20194;-73
2023/07/23 04:22:22;;;;;;;32.80;6.93;;;26.60;51.20;;;;;;5070526;28;20202;-71
2023/07/23 04:24:49;;;;;;;27.10;5.73;;;26.60;51.10;;;;;;5050319;28;20688;-68
2023/07/23 04:27:16;;;;;;;28.70;6.30;;;26.60;51.20;;;;;;5045945;28;20208;-69
2023/07/23 04:29:43;;;;;;;23.43;5.93;;;26.60;51.10;;;;;;5049794;28;20204;-67
2023/07/23 04:32:11;;;;;;;31.83;6.70;;;26.60;51.20;;;;;;5050552;28;20233;-66
2023/07/23 04:34:38;;;;;;;28.67;6.00;;;26.60;51.10;;;;;;5048363;28;20242;-66
2023/07/23 04:37:06;;;;;;;23.87;5.63;;;26.60;51.20;;;;;;5050245;28;20208;-69
2023/07/23 04:39:33;;;;;;;28.73;6.47;;;26.60;51.10;;;;;;5051710;28;20245;-68
2023/07/23 04:42:00;;;;;;;31.47;6.57;;;26.60;51.10;;;;;;5068109;28;20679;-66
2023/07/23 04:44:27;;;;;;;25.93;6.20;;;26.60;51.20;;;;;;5058826;28;20662;-69
2023/07/23 04:46:54;;;;;;;30.85;6.47;;;26.60;51.20;;;;;;5032324;28;20447;-66
2023/07/23 04:49:22;;;;;;;27.60;6.10;;;26.50;51.60;;;;;;5058744;28;20795;-65
2023/07/23 04:51:49;;;;;;;48.17;8.20;;;26.50;51.60;;;;;;5046557;28;20196;-65
2023/07/23 04:54:16;;;;;;;39.70;7.40;;;26.50;51.60;;;;;;5031061;28;20228;-66
2023/07/23 04:56:43;;;;;;;33.93;7.03;;;26.50;51.30;;;;;;5045785;28;20204;-66
2023/07/23 04:59:10;;;;;;;23.77;5.87;;;26.60;51.30;;;;;;5049950;28;20200;-65
2023/07/23 05:01:37;;;;;;;24.13;5.83;;;26.60;51.30;;;;;;5044045;28;20739;-65
2023/07/23 05:04:04;;;;;;;24.13;6.33;;;26.60;51.20;;;;;;5049548;28;20196;-65
2023/07/23 05:06:32;;;;;;;38.57;7.10;;;26.60;51.20;;;;;;5049153;28;20207;-65
2023/07/23 05:08:59;;;;;;;27.83;6.37;;;26.60;51.20;;;;;;5049370;28;20633;-67
2023/07/23 05:11:26;;;;;;;27.23;6.33;;;26.60;51.20;;;;;;5057884;28;20195;-64
2023/07/23 05:13:52;;;;;;;26.97;6.13;;;26.60;51.20;;;;;;5050295;28;20216;-66
2023/07/23 05:16:19;;;;;;;34.73;7.27;;;26.50;51.10;;;;;;5043772;28;20208;-65
2023/07/23 05:18:46;;;;;;;25.70;6.87;;;26.50;51.20;;;;;;5049102;28;20212;-67
2023/07/23 05:21:13;;;;;;;26.70;6.77;;;26.50;51.20;;;;;;5048850;28;20197;-66
2023/07/23 05:23:43;;;;;;;28.63;7.63;;;26.50;51.10;;;;;;5043765;28;20231;-68
2023/07/23 05:26:10;;;;;;;27.07;7.37;;;26.50;51.10;;;;;;5036816;28;20196;-66
2023/07/23 05:28:37;;;;;;;31.13;7.50;;;26.50;51.20;;;;;;5030245;28;20647;-69
2023/07/23 05:31:04;;;;;;;28.53;7.13;;;26.50;51.20;;;;;;5029604;28;20221;-69
2023/07/23 05:33:31;;;;;;;28.80;7.37;;;26.50;51.20;;;;;;5038219;28;20228;-66
2023/07/23 05:35:58;;;;;;;26.37;7.40;;;26.50;51.20;;;;;;5068203;28;20207;-67
2023/07/23 05:38:26;;;;;;;31.43;7.73;;;26.50;51.30;;;;;;5068446;28;20674;-66
2023/07/23 05:40:56;;;;;;;30.10;8.10;;;26.50;51.20;;;;;;5066885;28;20290;-66
2023/07/23 05:43:23;;;;;;;46.30;9.23;;;26.50;51.20;;;;;;5058559;28;20206;-65
2023/07/23 05:45:50;;;;;;;28.27;8.20;;;26.40;51.10;;;;;;5045701;28;20196;-65
2023/07/23 05:48:17;;;;;;;33.27;8.97;;;26.40;51.10;;;;;;5046695;28;20200;-65
2023/07/23 05:50:44;;;;;;;27.27;7.60;;;26.50;51.30;;;;;;5046832;28;20204;-65
2023/07/23 05:53:11;;;;;;;34.47;7.97;;;26.40;51.20;;;;;;5048278;28;20782;-66
2023/07/23 05:55:38;;;;;;;36.50;8.53;;;26.40;51.20;;;;;;5044289;28;20666;-66
2023/07/23 05:58:07;;;;;;;27.13;7.50;;;26.40;51.20;;;;;;5028612;28;20201;-66
2023/07/23 06:00:34;;;;;;;26.53;7.60;;;26.40;51.30;;;;;;5037759;28;20243;-65
2023/07/23 06:03:00;;;;;;;31.57;8.07;;;26.30;51.30;;;;;;5048528;28;20196;-68
2023/07/23 06:05:27;;;;;;;41.50;8.60;;;26.30;51.30;;;;;;5048413;28;20193;-68
2023/07/23 06:07:54;;;;;;;27.67;7.43;;;26.30;51.30;;;;;;5032182;28;20201;-64
2023/07/23 06:10:21;;;;;;;29.30;7.20;;;26.30;51.30;;;;;;5037888;28;20321;-64
2023/07/23 06:12:48;;;;;;;39.80;8.50;;;26.30;51.30;;;;;;5038322;28;20200;-65
2023/07/23 06:15:16;;;;;;;25.33;7.53;;;26.30;51.40;;;;;;5034983;28;20205;-67
2023/07/23 06:17:43;;;;;;;33.43;8.43;;;26.20;51.40;;;;;;5035781;28;20195;-68
2023/07/23 06:20:11;;;;;;;33.40;7.80;;;26.20;51.50;;;;;;5041551;28;20208;-69
2023/07/23 06:22:37;;;;;;;34.77;7.87;;;26.20;51.50;;;;;;5027530;28;20205;-67
2023/07/23 06:25:05;;;;;;;34.67;8.30;;;26.20;51.50;;;;;;5039638;28;20556;-66
2023/07/23 06:27:32;;;;;;;21.90;7.10;;;26.20;51.50;;;;;;5030849;28;20208;-67
2023/07/23 06:29:59;;;;;;;54.13;9.77;;;26.20;51.50;;;;;;5043144;28;20211;-66
2023/07/23 06:32:27;;;;;;;18.53;6.60;;;26.20;51.50;;;;;;5027276;28;20197;-66
2023/07/23 06:34:54;;;;;;;23.43;6.87;;;26.20;51.50;;;;;;5027319;28;20236;-67
2023/07/23 06:37:21;;;;;;;35.97;8.07;;;26.20;51.50;;;;;;5042044;28;20222;-69
2023/07/23 06:39:48;;;;;;;43.47;9.00;;;26.20;51.50;;;;;;5030041;28;20976;-66
2023/07/23 06:42:15;;;;;;;26.63;7.30;;;26.20;51.50;;;;;;5042081;28;20201;-66
2023/07/23 06:44:42;;;;;;;28.20;7.03;;;26.20;51.50;;;;;;5046029;28;20200;-69
2023/07/23 06:47:09;;;;;;;27.23;6.80;;;26.20;51.50;;;;;;5032552;28;20251;-66
2023/07/23 06:49:37;;;;;;;28.30;7.43;;;26.20;52.10;;;;;;5029744;28;20728;-66
2023/07/23 06:52:05;;;;;;;25.83;7.00;;;26.20;51.50;;;;;;5045057;28;20208;-64
2023/07/23 06:54:32;;;;;;;39.67;7.97;;;26.20;51.50;;;;;;5036249;28;20228;-64
2023/07/23 06:56:59;;;;;;;35.10;7.97;;;26.10;51.40;;;;;;5056474;28;20682;-66
2023/07/23 06:59:26;;;;;;;36.23;7.60;;;26.10;51.50;;;;;;5044936;28;20754;-67
2023/07/23 07:01:53;;;;;;;26.70;6.97;;;26.20;51.70;;;;;;5037964;28;20304;-66
2023/07/23 07:04:20;;;;;;;29.47;7.07;;;26.20;51.70;;;;;;5027274;28;20205;-64
2023/07/23 07:06:48;;;;;;;31.23;7.27;;;26.20;51.70;;;;;;5027702;28;20200;-65
2023/07/23 07:09:15;;;;;;;45.27;7.90;;;26.20;51.80;;;;;;5028927;28;20559;-68
2023/07/23 07:11:44;;;;;;;34.47;7.67;;;26.10;51.90;;;;;;5038978;28;20207;-64
2023/07/23 07:14:11;;;;;;;26.93;7.10;;;26.10;51.90;;;;;;5066502;28;20310;-63
2023/07/23 07:16:38;;;;;;;20.50;6.23;;;26.10;51.90;;;;;;5039398;28;20200;-64
2023/07/23 07:19:04;;;;;;;51.30;8.80;;;26.20;52.00;;;;;;5043591;28;20204;-68
2023/07/23 07:21:31;;;;;;;35.03;6.90;;;26.20;52.00;;;;;;5043654;28;20196;-66
2023/07/23 07:24:00;;;;;;;30.43;7.17;;;26.10;51.90;;;;;;5047706;28;20239;-68
2023/07/23 07:26:26;;;;;;;26.70;6.63;;;26.10;51.90;;;;;;5047786;28;20192;-64
2023/07/23 07:28:53;;;;;;;24.70;6.60;;;26.10;51.90;;;;;;5047757;28;20196;-64
2023/07/23 07:31:20;;;;;;;48.00;8.27;;;26.10;52.00;;;;;;5043638;28;20197;-68
2023/07/23 07:33:47;;;;;;;29.80;6.77;;;26.10;52.00;;;;;;5047337;28;20219;-80
2023/07/23 07:36:14;;;;;;;28.90;6.87;;;26.10;51.90;;;;;;5047433;28;20192;-70
2023/07/23 07:38:41;;;;;;;25.93;6.37;;;26.10;52.00;;;;;;5030513;28;20299;-68
2023/07/23 07:41:10;;;;;;;45.03;8.07;;;26.10;52.00;;;;;;5048436;28;20599;-64
2023/07/23 07:43:36;;;;;;;29.53;6.80;;;26.10;52.00;;;;;;5032631;28;20299;-64
2023/07/23 07:46:05;;;;;;;47.40;8.10;;;26.10;52.10;;;;;;5032726;28;20205;-75
2023/07/23 07:48:33;;;;;;;30.90;6.60;;;26.10;52.10;;;;;;5046298;28;20236;-65
2023/07/23 07:51:00;;;;;;;33.13;7.10;;;26.10;52.20;;;;;;5048067;28;20219;-73
2023/07/23 07:53:27;;;;;;;39.97;7.60;;;26.10;52.20;;;;;;5033233;28;20207;-66
2023/07/23 07:55:55;;;;;;;33.73;7.60;;;26.10;52.10;;;;;;5030737;28;20197;-67
2023/07/23 07:58:25;;;;;;;29.23;7.37;;;26.10;52.40;;;;;;5050233;28;20204;-70
2023/07/23 08:00:53;;;;;;;26.83;6.70;;;26.10;52.80;;;;;;5050996;28;20185;-67
2023/07/23 08:03:22;;;;;;;29.73;6.87;;;26.10;52.90;;;;;;5050681;28;20231;-68
2023/07/23 08:05:49;;;;;;;30.47;6.93;;;26.00;52.90;;;;;;5050565;28;20196;-67
2023/07/23 08:08:20;;;;;;;44.03;8.13;;;25.90;53.10;;;;;;5045501;28;20195;-66
2023/07/23 08:10:47;;;;;;;34.17;7.40;;;25.90;53.30;;;;;;5058122;28;20200;-72
2023/07/23 08:13:15;;;;;;;28.17;6.60;;;25.80;53.30;;;;;;5050579;28;20208;-66
2023/07/23 08:15:44;;;;;;;26.30;6.57;;;25.70;53.60;;;;;;5050592;28;20230;-66
2023/07/23 08:18:11;;;;;;;81.30;11.17;;;25.60;53.70;;;;;;5047679;28;20208;-66
2023/07/23 08:20:39;;;;;;;32.73;7.00;;;25.50;53.80;;;;;;5063516;28;21108;-66
2023/07/23 08:23:07;;;;;;;31.23;7.07;;;25.50;54.20;;;;;;5030464;28;20234;-67
2023/07/23 08:25:35;;;;;;;33.17;6.90;;;25.40;54.00;;;;;;5030662;28;20200;-72
2023/07/23 08:28:02;;;;;;;30.50;6.80;;;25.30;54.30;;;;;;5030545;28;20338;-70
2023/07/23 08:30:30;;;;;;;33.97;7.27;;;25.20;54.40;;;;;;5041574;28;20203;-68
2023/07/23 08:33:00;;;;;;;43.13;7.67;;;25.20;54.70;;;;;;5043428;28;20220;-68
2023/07/23 08:35:29;;;;;;;30.67;6.60;;;25.10;55.00;;;;;;5052687;28;20227;-68
2023/07/23 08:37:56;;;;;;;20.10;5.40;;;25.00;55.20;;;;;;5057718;28;20214;-67
2023/07/23 08:40:25;;;;;;;32.77;7.13;;;25.00;55.30;;;;;;5050419;28;20232;-66
2023/07/23 08:43:27;;;;;;;24.63;5.80;;;24.90;55.70;;;;;;5050316;28;20228;-68
2023/07/23 08:46:21;;;;;;;32.10;6.30;;;24.90;56.40;;;;;;5045472;28;20425;-68
2023/07/23 08:49:03;;;;;;;34.03;7.53;;;24.80;57.10;;;;;;5049854;28;20257;-66
2023/07/23 08:51:34;;;;;;;32.00;6.73;;;24.70;56.50;;;;;;5046844;28;20219;-68
2023/07/23 08:54:03;;;;;;;30.60;6.63;;;24.70;56.40;;;;;;5070106;28;20219;-66
2023/07/23 08:56:30;;;;;;;53.67;8.53;;;24.70;56.50;;;;;;5067512;28;20238;-67
2023/07/23 08:58:58;;;;;;;29.10;6.73;;;24.70;56.50;;;;;;5030928;28;20719;-66
2023/07/23 09:01:26;;;;;;;35.77;7.30;;;24.60;56.40;;;;;;5029913;28;20211;-66
2023/07/23 09:03:52;;;;;;;26.50;6.50;;;24.60;56.70;;;;;;5029687;28;20209;-66
2023/07/23 09:06:22;;;;;;;46.20;8.33;;;24.60;56.90;;;;;;5030269;28;20203;-66
2023/07/23 09:08:51;;;;;;;33.77;6.77;;;24.60;57.10;;;;;;5049248;28;20204;-66
2023/07/23 09:11:18;;;;;;;32.60;6.83;;;24.50;57.30;;;;;;5049472;28;20207;-66
2023/07/23 09:13:45;;;;;;;29.13;6.80;;;24.50;57.10;;;;;;5049219;28;20219;-67
2023/07/23 09:16:12;;;;;;;36.47;7.17;;;24.50;57.30;;;;;;5046281;28;20219;-66
2023/07/23 09:18:40;;;;;;;34.53;7.10;;;24.50;57.50;;;;;;5049084;28;20208;-68
2023/07/23 09:21:09;;;;;;;26.53;6.03;;;24.50;57.60;;;;;;5040858;28;20201;-70
2023/07/23 09:23:37;;;;;;;24.50;6.17;;;24.50;57.80;;;;;;5042525;28;20958;-64
2023/07/23 09:26:08;;;;;;;28.27;6.67;;;24.40;57.90;;;;;;5042091;28;20397;-65
2023/07/23 09:28:36;;;;;;;33.90;6.70;;;24.40;58.10;;;;;;5047646;28;20412;-65
2023/07/23 09:31:03;;;;;;;31.53;6.77;;;24.40;58.20;;;;;;5050606;28;20906;-66
2023/07/23 09:33:34;;;;;;;40.10;7.27;;;24.40;58.30;;;;;;5048727;28;20200;-66
2023/07/23 09:36:03;;;;;;;33.80;6.63;;;24.40;58.00;;;;;;5056283;28;20257;-65
2023/07/23 09:38:30;;;;;;;28.20;6.40;;;24.40;58.50;;;;;;5068598;28;20580;-66
2023/07/23 09:40:58;;;;;;;35.43;7.17;;;24.30;58.70;;;;;;5069199;28;20208;-65
2023/07/23 09:43:25;;;;;;;24.87;5.97;;;24.30;59.00;;;;;;5055114;28;20205;-63
2023/07/23 09:45:52;;;;;;;69.20;9.73;;;24.30;58.30;;;;;;5045550;28;20221;-65
2023/07/23 09:48:21;;;;;;;25.97;5.97;;;24.30;57.90;;;;;;5052057;28;20204;-66
2023/07/23 09:50:51;;;;;;;34.03;6.60;;;24.40;57.80;;;;;;5048021;28;20204;-65
2023/07/23 09:53:18;;;;;;;24.73;5.50;;;24.40;58.30;;;;;;5030888;28;20676;-65
2023/07/23 09:55:46;;;;;;;37.20;7.10;;;24.40;58.50;;;;;;5029083;28;20233;-64
2023/07/23 09:58:17;;;;;;;38.23;7.30;;;24.50;59.10;;;;;;5029487;28;20224;-65
2023/07/23 10:00:46;;;;;;;24.27;5.90;;;24.50;59.80;;;;;;5048755;28;20727;-64
2023/07/23 10:03:14;;;;;;;38.13;6.83;;;24.50;59.50;;;;;;5040972;28;20633;-64
2023/07/23 10:05:42;;;;;;;55.30;8.60;;;24.60;59.90;;;;;;5036796;28;20292;-64
2023/07/23 10:08:09;;;;;;;68.23;9.27;;;24.60;59.50;;;;;;5054293;28;20209;-64
2023/07/23 10:10:36;;;;;;;36.47;6.67;;;24.70;59.70;;;;;;5060612;28;20207;-66
2023/07/23 10:13:03;;;;;;;46.63;7.43;;;24.60;59.50;;;;;;5058396;28;20661;-65
2023/07/23 10:15:32;;;;;;;43.33;7.13;;;24.70;59.60;;;;;;5038618;28;20212;-63
2023/07/23 10:18:01;;;;;;;25.73;5.87;;;24.80;59.40;;;;;;5048283;28;20262;-64
2023/07/23 10:20:31;;;;;;;32.23;6.40;;;24.80;58.90;;;;;;5046224;28;20207;-64
2023/07/23 10:22:58;;;;;;;32.67;6.10;;;24.80;58.60;;;;;;5047999;28;20667;-64
2023/07/23 10:25:30;;;;;;;47.53;7.17;;;24.80;58.50;;;;;;5042312;28;20210;-65
2023/07/23 10:27:59;;;;;;;35.13;6.20;;;24.90;58.40;;;;;;5067850;28;20210;-64
2023/07/23 10:30:27;;;;;;;29.40;5.83;;;25.00;58.30;;;;;;5068009;28;20209;-65
2023/07/23 10:33:30;;;;;;;46.63;7.10;;;25.00;58.30;;;;;;5061028;28;20211;-67
2023/07/23 10:36:04;;;;;;;29.87;6.07;;;25.10;58.40;;;;;;5027870;28;20238;-64
2023/07/23 10:38:32;;;;;;;26.80;5.70;;;25.20;58.20;;;;;;5028035;28;20212;-65
2023/07/23 10:41:00;;;;;;;27.67;5.87;;;25.30;58.00;;;;;;5027834;28;20201;-66
2023/07/23 10:43:39;;;;;;;31.13;6.10;;;25.40;57.80;;;;;;5027859;28;20204;-65
2023/07/23 10:46:06;;;;;;;27.67;6.00;;;25.40;57.80;;;;;;5028059;28;20262;-66
2023/07/23 10:51:42;;;;;;;24.40;5.40;;;25.50;57.70;;;;;;5057895;28;20642;-65
2023/07/23 10:54:09;;;;;;;80.80;10.33;;;25.60;58.40;;;;;;5074585;27;20684;-64
2023/07/23 10:56:37;;;;;;;26.87;6.10;;;25.60;57.70;;;;;;5058014;28;20324;-66
2023/07/23 10:59:06;;;;;;;26.23;5.73;;;25.70;57.90;;;;;;5070373;28;20195;-66
2023/07/23 11:01:36;;;;;;;32.60;5.97;;;25.80;57.90;;;;;;5081580;28;20194;-64
2023/07/23 11:04:09;;;;;;;26.67;5.47;;;25.90;58.00;;;;;;5081956;27;20202;-67
2023/07/23 11:06:41;;;;;;;27.47;5.43;;;26.00;58.00;;;;;;5081638;28;20289;-64
2023/07/23 11:09:10;;;;;;;27.30;5.67;;;26.10;57.90;;;;;;5081332;27;20214;-64
2023/07/23 11:11:39;;;;;;;28.40;5.80;;;26.20;57.80;;;;;;5081812;27;20259;-64
2023/07/23 11:14:22;;;;;;;55.07;8.13;;;26.30;57.70;;;;;;5076957;28;20199;-67
2023/07/23 11:16:49;;;;;;;28.93;6.00;;;26.40;57.70;;;;;;5054905;28;20195;-64
2023/07/23 11:19:18;;;;;;;24.63;5.23;;;26.50;57.60;;;;;;5061206;28;20214;-63
2023/07/23 11:21:51;;;;;;;31.50;5.73;;;26.60;57.60;;;;;;5059964;28;20208;-63
2023/07/23 11:24:19;;;;;;;23.80;5.07;;;26.70;57.50;;;;;;5041259;28;20219;-65
2023/07/23 11:26:46;;;;;;;27.90;5.70;;;26.70;57.40;;;;;;5041388;28;20201;-68
2023/07/23 11:29:13;;;;;;;26.47;5.47;;;26.80;57.40;;;;;;5053477;28;20199;-64
2023/07/23 11:31:41;;;;;;;28.90;5.67;;;26.90;57.40;;;;;;5061240;28;20210;-64
2023/07/23 11:34:11;;;;;;;30.60;6.07;;;26.90;57.40;;;;;;5061038;27;20206;-63
2023/07/23 11:36:38;;;;;;;23.63;5.37;;;27.00;57.60;;;;;;5061433;28;20246;-64
2023/07/23 11:39:07;;;;;;;28.83;5.97;;;27.10;57.70;;;;;;5061542;27;20192;-64
2023/07/23 11:41:35;;;;;;;25.23;5.93;;;27.20;57.80;;;;;;5061275;27;20203;-63
2023/07/23 11:44:04;;;;;;;26.10;5.93;;;27.30;57.70;;;;;;5061357;27;20753;-64
2023/07/23 11:46:33;;;;;;;26.80;5.73;;;27.40;57.60;;;;;;5061235;27;20219;-63
2023/07/23 11:49:00;;;;;;;25.00;5.47;;;27.70;57.60;;;;;;5049764;27;20647;-63
2023/07/23 11:51:28;;;;;;;35.73;6.37;;;27.80;57.50;;;;;;5060646;27;20235;-63
2023/07/23 11:54:01;;;;;;;22.90;5.13;;;27.90;57.40;;;;;;5057941;28;20280;-64
2023/07/23 11:56:31;;;;;;;27.60;6.07;;;28.00;57.20;;;;;;5020838;28;20197;-64
2023/07/23 11:59:03;;;;;;;21.50;5.47;;;28.20;57.20;;;;;;5021330;28;20201;-63
2023/07/23 12:01:31;;;;;;;30.83;6.20;;;28.30;56.80;;;;;;5015562;28;20214;-63
2023/07/23 12:04:00;;;;;;;22.37;5.30;;;28.40;56.70;;;;;;5008188;28;20201;-62
2023/07/23 12:06:29;;;;;;;26.33;5.80;;;28.50;56.50;;;;;;5008104;28;20202;-65
2023/07/23 12:08:56;;;;;;;24.70;5.73;;;28.60;56.40;;;;;;5007632;28;20205;-71
2023/07/23 12:11:24;;;;;;;28.20;6.00;;;28.60;56.20;;;;;;5007532;28;20697;-65
2023/07/23 12:13:54;;;;;;;28.20;5.80;;;28.70;56.00;;;;;;5007962;28;20748;-64
2023/07/23 12:16:37;;;;;;;25.90;5.90;;;28.80;55.90;;;;;;5020314;28;20733;-68
2023/07/23 12:19:05;;;;;;;31.47;6.23;;;28.80;55.80;;;;;;5027379;28;20203;-63
2023/07/23 12:21:35;;;;;;;39.80;6.67;;;28.80;55.80;;;;;;5027012;28;20570;-70
2023/07/23 12:24:18;;;;;;;102.80;12.83;;;28.90;55.70;;;;;;5024900;28;21440;-67
2023/07/23 12:26:46;;;;;;;32.90;6.73;;;28.90;55.60;;;;;;5044790;28;20204;-65
2023/07/23 12:29:14;;;;;;;25.47;5.77;;;29.00;55.80;;;;;;5047117;28;20223;-68
2023/07/23 12:31:43;;;;;;;24.40;5.43;;;29.00;55.70;;;;;;5046900;28;20300;-63
2023/07/23 12:34:10;;;;;;;26.27;5.63;;;29.00;55.70;;;;;;5047060;28;20315;-63
2023/07/23 12:36:37;;;;;;;27.67;6.50;;;29.10;55.70;;;;;;5046698;28;20199;-68
2023/07/23 12:39:05;;;;;;;34.20;7.03;;;29.10;55.70;;;;;;5047337;28;20279;-64
2023/07/23 12:41:32;;;;;;;51.47;9.83;;;29.20;55.60;;;;;;5034510;28;20592;-63
2023/07/23 12:43:59;;;;;;;32.83;7.87;;;29.20;55.50;;;;;;5026462;28;20352;-67